Time;durP1;ratioP1;P1;durP2;ratioP2;P2;SDS_P1;SDS_P2;PMS_P1;PMS_P2;Temp;Humidity;BMP_temperature;BMP_pressure;BME280_temperature;BME280_humidity;BME280_pressure;Samples;Min_cycle;Max_cycle;Signal;HPM_P1;HPM_P2
2021/12/01 00:00:51;;;;;;;9.25;2.70;;;6.90;99.90;;;;;;6100231;23;20056;-86
2021/12/01 00:03:17;;;;;;;5.15;2.30;;;6.90;99.90;;;;;;6126140;23;20002;-86
2021/12/01 00:05:43;;;;;;;4.40;2.10;;;6.90;99.90;;;;;;6126192;23;19998;-85
2021/12/01 00:08:09;;;;;;;8.95;2.63;;;6.80;99.90;;;;;;6125627;23;20105;-84
2021/12/01 00:10:37;;;;;;;9.73;2.60;;;6.80;99.90;;;;;;6126382;23;19990;-85
2021/12/01 00:13:05;;;;;;;5.90;2.28;;;6.70;99.90;;;;;;6125880;23;20012;-86
2021/12/01 00:15:31;;;;;;;4.20;2.10;;;6.60;99.90;;;;;;6126350;23;20077;-86
2021/12/01 00:17:56;;;;;;;5.55;2.20;;;6.60;99.90;;;;;;6125828;23;20045;-85
2021/12/01 00:20:22;;;;;;;4.63;2.17;;;6.50;99.90;;;;;;6126161;23;20069;-86
2021/12/01 00:22:49;;;;;;;3.97;2.10;;;6.40;99.90;;;;;;6125808;23;20002;-86
2021/12/01 00:25:17;;;;;;;3.13;2.00;;;6.50;99.90;;;;;;6100297;23;20429;-86
2021/12/01 00:27:44;;;;;;;4.55;2.47;;;6.60;99.90;;;;;;6099904;23;20041;-86
2021/12/01 00:30:10;;;;;;;7.60;1.90;;;6.90;99.90;;;;;;6125929;23;20002;-86
2021/12/01 00:32:36;;;;;;;4.28;2.45;;;7.00;99.90;;;;;;6100060;23;20004;-86
2021/12/01 00:35:05;;;;;;;5.18;2.22;;;7.00;99.90;;;;;;6126006;23;20081;-86
2021/12/01 00:37:31;;;;;;;7.82;2.80;;;6.80;99.90;;;;;;6099719;23;20025;-86
2021/12/01 00:39:57;;;;;;;6.78;3.17;;;6.70;99.90;;;;;;6125154;23;20151;-87
2021/12/01 00:42:23;;;;;;;3.50;1.95;;;6.70;99.90;;;;;;6099866;23;20040;-86
2021/12/01 00:44:55;;;;;;;8.82;2.33;;;6.60;99.90;;;;;;6099910;23;20022;-86
2021/12/01 00:50:28;;;;;;;5.05;2.45;;;6.80;99.90;;;;;;6007567;23;20039;-86
2021/12/01 00:52:55;;;;;;;4.97;2.42;;;6.90;99.90;;;;;;6084567;23;20604;-86
2021/12/01 00:55:22;;;;;;;7.57;2.63;;;6.80;99.90;;;;;;6125741;23;19998;-86
2021/12/01 00:57:52;;;;;;;2.33;1.98;;;6.80;99.90;;;;;;6099471;23;20096;-86
2021/12/01 01:00:20;;;;;;;6.55;2.40;;;6.80;99.90;;;;;;6125636;23;19998;-84
2021/12/01 01:02:46;;;;;;;6.93;2.15;;;6.80;99.90;;;;;;6126018;23;20005;-85
2021/12/01 01:05:12;;;;;;;6.72;2.40;;;6.90;99.90;;;;;;6125676;23;20869;-85
2021/12/01 01:07:38;;;;;;;6.43;2.47;;;6.90;99.90;;;;;;6126244;23;20002;-85
2021/12/01 01:18:24;;;;;;;5.43;1.80;;;7.20;99.90;;;;;;6125758;23;20102;-85
2021/12/01 01:20:50;;;;;;;6.82;2.17;;;7.30;99.90;;;;;;6098807;23;20029;-85
2021/12/01 01:23:16;;;;;;;7.30;2.58;;;7.30;99.90;;;;;;6099905;23;20429;-85
2021/12/01 01:25:42;;;;;;;7.13;2.30;;;7.30;99.90;;;;;;6124894;23;20013;-84
2021/12/01 01:28:07;;;;;;;7.25;2.28;;;7.20;99.90;;;;;;6124838;23;20017;-85
2021/12/01 01:30:33;;;;;;;6.15;2.05;;;7.10;99.90;;;;;;6124862;23;21006;-86
2021/12/01 01:33:00;;;;;;;5.85;2.05;;;7.10;99.90;;;;;;6124749;23;21303;-85
2021/12/01 01:35:26;;;;;;;4.90;2.13;;;7.10;99.90;;;;;;6124749;23;20010;-84
2021/12/01 01:37:51;;;;;;;6.40;2.70;;;7.00;99.90;;;;;;6124586;23;20033;-84
2021/12/01 01:40:17;;;;;;;8.50;2.88;;;7.10;99.90;;;;;;6125233;23;20002;-85
2021/12/01 01:42:43;;;;;;;3.75;2.15;;;7.20;99.90;;;;;;6125525;23;20006;-85
2021/12/01 01:45:10;;;;;;;8.27;2.50;;;7.30;99.90;;;;;;6125360;23;20072;-85
2021/12/01 01:47:36;;;;;;;5.50;2.35;;;7.20;99.90;;;;;;6127469;23;20413;-85
2021/12/01 01:50:48;;;;;;;5.13;2.30;;;7.20;99.90;;;;;;6131474;23;20422;-85
2021/12/01 01:52:49;;;;;;;10.45;2.60;;;7.30;99.90;;;;;;6104967;23;20002;-85
2021/12/01 01:55:15;;;;;;;4.65;2.75;;;7.40;99.90;;;;;;6101130;23;20010;-85
2021/12/01 01:57:44;;;;;;;7.72;2.97;;;7.40;99.90;;;;;;6128404;23;20017;-85
2021/12/01 02:00:11;;;;;;;7.80;3.20;;;7.30;99.90;;;;;;6101106;23;20013;-86
2021/12/01 02:02:36;;;;;;;4.75;2.55;;;7.20;99.90;;;;;;6099867;23;20006;-85
2021/12/01 02:05:02;;;;;;;5.35;2.17;;;7.10;99.90;;;;;;6099979;23;20006;-84
2021/12/01 02:07:29;;;;;;;9.25;2.38;;;6.90;99.90;;;;;;6125448;23;20028;-85
2021/12/01 02:09:55;;;;;;;6.45;2.45;;;6.80;99.90;;;;;;6099348;23;20002;-84
2021/12/01 02:12:20;;;;;;;4.75;2.35;;;6.80;99.90;;;;;;6099243;23;20010;-84
2021/12/01 02:14:46;;;;;;;5.85;2.03;;;6.70;99.90;;;;;;6099488;23;20017;-84
2021/12/01 02:17:12;;;;;;;7.32;2.30;;;6.90;99.90;;;;;;6099479;23;20401;-85
2021/12/01 02:19:39;;;;;;;2.55;1.88;;;7.00;99.90;;;;;;6125195;23;20002;-85
2021/12/01 02:22:04;;;;;;;5.53;2.00;;;7.00;99.90;;;;;;6125235;23;20002;-84
2021/12/01 02:24:30;;;;;;;7.80;2.42;;;7.10;99.90;;;;;;6125690;23;20001;-86
2021/12/01 02:26:56;;;;;;;5.47;2.78;;;7.10;99.90;;;;;;6125122;23;20018;-85
2021/12/01 02:29:25;;;;;;;10.73;3.13;;;7.00;99.90;;;;;;6099113;23;20009;-85
2021/12/01 02:31:52;;;;;;;9.80;2.50;;;6.90;99.90;;;;;;6125178;23;20002;-85
2021/12/01 02:34:22;;;;;;;6.65;3.05;;;6.80;99.90;;;;;;6099607;23;20041;-84
2021/12/01 02:36:50;;;;;;;10.68;3.85;;;6.80;99.90;;;;;;6124907;23;20064;-84
2021/12/01 02:39:17;;;;;;;6.07;2.72;;;6.80;99.90;;;;;;6124912;23;20002;-84
2021/12/01 02:41:45;;;;;;;5.93;2.55;;;6.90;99.90;;;;;;6125132;23;20012;-85
2021/12/01 02:44:16;;;;;;;7.20;2.80;;;7.00;99.90;;;;;;6125174;23;19994;-85
2021/12/01 02:46:43;;;;;;;5.65;2.15;;;6.90;99.90;;;;;;6099439;23;20442;-84
2021/12/01 02:49:09;;;;;;;7.43;2.33;;;6.80;99.90;;;;;;6125396;23;20056;-85
2021/12/01 02:51:37;;;;;;;5.93;2.20;;;6.80;99.90;;;;;;6099220;23;20092;-84
2021/12/01 02:54:04;;;;;;;9.75;2.70;;;6.90;99.90;;;;;;6099978;23;20017;-84
2021/12/01 02:56:32;;;;;;;6.40;2.08;;;7.00;99.90;;;;;;6125603;23;20024;-86
2021/12/01 02:58:59;;;;;;;2.75;1.70;;;7.00;99.90;;;;;;6125505;23;20002;-86
2021/12/01 03:01:25;;;;;;;5.43;2.03;;;7.10;99.90;;;;;;6125728;23;20008;-85
2021/12/01 03:03:51;;;;;;;7.07;2.30;;;7.30;99.90;;;;;;6125653;23;20033;-86
2021/12/01 03:06:19;;;;;;;4.82;1.90;;;7.40;99.90;;;;;;6125702;23;20006;-85
2021/12/01 03:08:46;;;;;;;4.63;1.63;;;7.50;99.90;;;;;;6099625;23;20005;-85
2021/12/01 03:11:14;;;;;;;9.18;3.08;;;7.80;99.90;;;;;;6125327;23;20006;-84
2021/12/01 03:13:41;;;;;;;6.18;2.30;;;7.90;99.90;;;;;;6099130;23;20504;-85
2021/12/01 03:16:07;;;;;;;6.43;2.10;;;7.90;99.90;;;;;;6124799;23;20053;-85
2021/12/01 03:18:33;;;;;;;7.85;2.00;;;7.90;99.90;;;;;;6099069;23;20017;-84
2021/12/01 03:20:59;;;;;;;2.40;1.80;;;7.90;99.90;;;;;;6124633;23;20000;-85
2021/12/01 03:23:26;;;;;;;4.13;1.80;;;8.00;99.90;;;;;;6099137;23;20006;-85
2021/12/01 03:25:52;;;;;;;12.48;1.73;;;8.10;99.90;;;;;;6124751;23;20190;-84
2021/12/01 03:28:19;;;;;;;6.65;2.10;;;8.20;99.90;;;;;;6124898;23;20006;-85
2021/12/01 03:30:46;;;;;;;6.80;2.67;;;8.30;99.90;;;;;;6098746;23;20010;-84
2021/12/01 03:33:15;;;;;;;5.50;2.40;;;8.20;99.90;;;;;;6099549;23;20065;-85
2021/12/01 03:35:43;;;;;;;16.80;3.30;;;8.20;99.90;;;;;;6099264;23;20010;-85
2021/12/01 03:38:09;;;;;;;9.30;2.47;;;8.20;99.90;;;;;;6125127;23;20017;-85
2021/12/01 03:40:35;;;;;;;7.30;1.73;;;8.20;99.90;;;;;;6099308;23;20009;-85
2021/12/01 03:43:02;;;;;;;4.10;1.73;;;8.20;99.90;;;;;;6099501;23;20017;-85
2021/12/01 03:45:28;;;;;;;4.80;2.00;;;8.00;99.90;;;;;;6125152;23;20001;-86
2021/12/01 03:47:54;;;;;;;5.60;2.20;;;8.00;99.90;;;;;;6124797;23;20033;-84
2021/12/01 03:50:20;;;;;;;6.43;2.72;;;7.90;99.90;;;;;;6099166;23;20061;-85
2021/12/01 03:52:45;;;;;;;5.85;2.10;;;7.80;99.90;;;;;;6099079;23;20006;-85
2021/12/01 03:55:11;;;;;;;5.18;2.17;;;7.90;99.90;;;;;;6125156;23;20017;-84
2021/12/01 03:57:38;;;;;;;7.35;2.25;;;7.80;99.90;;;;;;6124698;23;20010;-85
2021/12/01 04:00:08;;;;;;;4.43;1.80;;;7.80;99.90;;;;;;6098960;23;20029;-85
2021/12/01 04:02:34;;;;;;;6.03;1.90;;;7.90;99.90;;;;;;6099482;23;20013;-85
2021/12/01 04:04:59;;;;;;;4.90;1.80;;;7.90;99.90;;;;;;6124860;23;19998;-86
2021/12/01 04:07:25;;;;;;;6.00;1.88;;;7.90;99.90;;;;;;6125184;23;20077;-85
2021/12/01 04:09:51;;;;;;;6.35;1.90;;;7.90;99.90;;;;;;6124652;23;20013;-86
2021/12/01 04:12:17;;;;;;;5.32;2.00;;;7.80;99.90;;;;;;6124950;23;20002;-86
2021/12/01 04:14:44;;;;;;;6.20;2.20;;;7.80;99.90;;;;;;6098927;23;20002;-86
2021/12/01 04:17:10;;;;;;;6.15;1.88;;;7.80;99.90;;;;;;6098988;23;20484;-86
2021/12/01 04:19:36;;;;;;;6.07;2.42;;;7.70;99.90;;;;;;6099370;23;20029;-86
2021/12/01 04:22:02;;;;;;;2.78;1.70;;;7.70;99.90;;;;;;6098985;23;20349;-86
2021/12/01 04:24:28;;;;;;;4.55;2.30;;;7.60;99.90;;;;;;6125339;23;19998;-85
2021/12/01 04:26:54;;;;;;;12.38;6.47;;;7.60;99.90;;;;;;6126491;23;20018;-85
2021/12/01 04:29:20;;;;;;;59.90;26.13;;;7.60;99.90;;;;;;6100511;23;20002;-86
2021/12/01 04:31:45;;;;;;;25.15;9.27;;;7.50;99.90;;;;;;6126849;23;20009;-85
2021/12/01 04:34:12;;;;;;;14.45;4.60;;;7.60;99.90;;;;;;6126558;23;20001;-87
2021/12/01 04:36:41;;;;;;;8.38;2.90;;;7.60;99.90;;;;;;6100894;23;20349;-85
2021/12/01 04:39:13;;;;;;;6.05;2.10;;;7.60;99.90;;;;;;6100004;23;20333;-86
2021/12/01 04:41:42;;;;;;;4.93;1.80;;;7.70;99.90;;;;;;6100056;23;20010;-86
2021/12/01 04:44:14;;;;;;;3.55;1.90;;;7.60;99.90;;;;;;6125764;23;20008;-86
2021/12/01 04:46:45;;;;;;;4.65;1.77;;;7.80;99.90;;;;;;6125820;23;20033;-85
2021/12/01 04:49:14;;;;;;;5.20;1.88;;;7.80;99.90;;;;;;6099293;23;20547;-85
2021/12/01 04:51:42;;;;;;;8.73;2.30;;;7.70;99.90;;;;;;6124849;23;20013;-85
2021/12/01 04:54:08;;;;;;;7.35;2.00;;;7.70;99.90;;;;;;6125541;23;20002;-86
2021/12/01 04:56:35;;;;;;;6.43;1.90;;;7.70;99.90;;;;;;6125647;23;20013;-85
2021/12/01 04:59:01;;;;;;;5.30;2.20;;;7.80;99.90;;;;;;6099032;23;20084;-85
2021/12/01 05:01:26;;;;;;;3.33;2.10;;;7.70;99.90;;;;;;6125973;23;20469;-84
2021/12/01 05:03:52;;;;;;;5.90;2.22;;;7.80;99.90;;;;;;6125435;23;20417;-85
2021/12/01 05:06:18;;;;;;;4.68;2.85;;;7.80;99.90;;;;;;6099713;23;20006;-85
2021/12/01 05:08:45;;;;;;;3.40;1.80;;;7.80;99.90;;;;;;6099690;23;20438;-85
2021/12/01 05:11:11;;;;;;;7.15;2.20;;;7.80;99.90;;;;;;6126233;23;20009;-84
2021/12/01 05:13:37;;;;;;;5.57;2.20;;;7.80;99.90;;;;;;6125538;23;19998;-83
2021/12/01 05:16:02;;;;;;;7.15;2.75;;;7.90;99.90;;;;;;6125125;23;20001;-84
2021/12/01 05:18:28;;;;;;;8.75;2.60;;;7.80;99.90;;;;;;6125283;23;20382;-85
2021/12/01 05:20:54;;;;;;;8.95;3.42;;;7.90;99.90;;;;;;6099654;23;20006;-83
2021/12/01 05:23:19;;;;;;;3.80;2.40;;;7.90;99.90;;;;;;6124643;23;20036;-82
2021/12/01 05:25:46;;;;;;;5.72;3.30;;;7.80;99.90;;;;;;6099342;23;20338;-83
2021/12/01 05:28:12;;;;;;;4.20;2.70;;;7.90;99.90;;;;;;6099430;23;20080;-83
2021/12/01 05:30:38;;;;;;;6.55;2.58;;;7.90;99.90;;;;;;6125186;23;20006;-84
2021/12/01 05:33:06;;;;;;;6.63;2.60;;;7.90;99.90;;;;;;6125532;23;20426;-81
2021/12/01 05:35:33;;;;;;;5.38;2.17;;;7.90;99.90;;;;;;6125006;23;20341;-81
2021/12/01 05:37:59;;;;;;;5.00;2.30;;;8.00;99.90;;;;;;6124734;23;20065;-83
2021/12/01 05:40:25;;;;;;;6.43;2.55;;;7.90;99.90;;;;;;6124770;23;20031;-82
2021/12/01 05:42:50;;;;;;;13.90;4.25;;;7.80;99.90;;;;;;6124863;23;20550;-82
2021/12/01 05:45:16;;;;;;;9.20;3.40;;;7.80;99.90;;;;;;6124729;23;20002;-83
2021/12/01 05:47:42;;;;;;;9.95;2.65;;;7.80;99.90;;;;;;6124955;23;19998;-83
2021/12/01 05:50:08;;;;;;;6.30;2.03;;;7.80;99.90;;;;;;6124722;23;20013;-83
2021/12/01 05:52:34;;;;;;;13.05;4.75;;;7.80;99.90;;;;;;6099164;23;20009;-83
2021/12/01 05:55:00;;;;;;;6.55;2.60;;;7.80;99.90;;;;;;6124588;23;20001;-83
2021/12/01 05:57:25;;;;;;;7.47;3.58;;;7.70;99.90;;;;;;6123410;23;20048;-83
2021/12/01 05:59:51;;;;;;;4.80;2.35;;;7.80;99.90;;;;;;6098341;23;20505;-84
2021/12/01 06:02:17;;;;;;;3.85;2.20;;;7.80;99.90;;;;;;6098355;23;20521;-83
2021/12/01 06:04:43;;;;;;;6.38;2.80;;;7.80;99.90;;;;;;6124471;23;19998;-83
2021/12/01 06:07:09;;;;;;;3.67;2.22;;;7.80;99.90;;;;;;6122965;23;20315;-83
2021/12/01 06:09:36;;;;;;;12.43;4.47;;;7.90;99.90;;;;;;6123052;23;19998;-84
2021/12/01 06:12:02;;;;;;;11.75;4.75;;;7.90;99.90;;;;;;6125179;23;19998;-84
2021/12/01 06:14:28;;;;;;;272.70;64.72;;;7.90;99.90;;;;;;6122895;23;19994;-85
2021/12/01 06:16:54;;;;;;;47.13;12.93;;;7.90;99.90;;;;;;6124497;23;20017;-85
2021/12/01 06:19:20;;;;;;;6.10;2.53;;;7.80;99.90;;;;;;6097524;23;20067;-83
2021/12/01 06:21:46;;;;;;;10.40;2.65;;;7.80;99.90;;;;;;6096423;23;20017;-83
2021/12/01 06:24:12;;;;;;;8.50;2.00;;;7.80;99.90;;;;;;6127029;23;20128;-84
2021/12/01 06:26:38;;;;;;;5.20;2.95;;;7.80;99.90;;;;;;6102791;23;20461;-88
2021/12/01 06:29:04;;;;;;;4.70;2.10;;;7.70;99.90;;;;;;6099477;23;20400;-85
2021/12/01 06:31:30;;;;;;;6.32;2.17;;;7.70;99.90;;;;;;6099074;23;20006;-85
2021/12/01 06:33:58;;;;;;;9.30;2.65;;;7.60;99.90;;;;;;6125060;23;20006;-82
2021/12/01 06:36:24;;;;;;;4.82;2.75;;;7.60;99.90;;;;;;6124541;23;20012;-81
2021/12/01 06:38:50;;;;;;;6.55;2.15;;;7.50;99.90;;;;;;6125418;23;20002;-81
2021/12/01 06:41:16;;;;;;;6.15;2.95;;;7.50;99.90;;;;;;6124686;23;20002;-81
2021/12/01 06:43:41;;;;;;;9.27;2.97;;;7.40;99.90;;;;;;6126376;23;20006;-81
2021/12/01 06:46:07;;;;;;;7.10;2.65;;;7.30;99.90;;;;;;6098642;23;20002;-80
2021/12/01 06:48:33;;;;;;;7.68;3.03;;;7.20;99.90;;;;;;6124770;23;20009;-82
2021/12/01 06:50:59;;;;;;;5.50;2.55;;;7.10;99.90;;;;;;6124380;23;20438;-83
2021/12/01 06:53:26;;;;;;;11.90;2.70;;;7.00;99.90;;;;;;6124590;23;20315;-82
2021/12/01 06:55:55;;;;;;;12.02;2.50;;;7.00;99.90;;;;;;6098229;23;20012;-83
2021/12/01 06:58:20;;;;;;;10.77;2.85;;;7.00;99.90;;;;;;6124373;23;20006;-83
2021/12/01 07:00:46;;;;;;;5.93;2.60;;;7.00;99.90;;;;;;6124383;23;20073;-84
2021/12/01 07:03:12;;;;;;;8.52;2.70;;;7.00;99.90;;;;;;6098084;23;20041;-82
2021/12/01 07:05:38;;;;;;;7.57;2.80;;;6.90;99.90;;;;;;6098689;23;20065;-84
2021/12/01 07:08:05;;;;;;;11.65;2.58;;;7.00;99.90;;;;;;6124208;23;19998;-82
2021/12/01 07:10:30;;;;;;;6.55;2.55;;;7.00;99.90;;;;;;6123774;23;20002;-80
2021/12/01 07:12:56;;;;;;;4.10;2.15;;;7.00;99.90;;;;;;6123640;23;20002;-79
2021/12/01 07:15:22;;;;;;;5.28;2.63;;;7.10;99.90;;;;;;6123622;23;20021;-80
2021/12/01 07:17:48;;;;;;;3.28;2.35;;;7.10;99.90;;;;;;6096490;23;20010;-80
2021/12/01 07:20:15;;;;;;;6.95;2.30;;;7.10;99.90;;;;;;6122335;23;19994;-81
2021/12/01 07:22:44;;;;;;;8.80;2.65;;;7.20;99.90;;;;;;6122982;23;20033;-80
2021/12/01 07:25:11;;;;;;;5.07;2.65;;;7.30;99.90;;;;;;6122347;23;19994;-81
2021/12/01 07:27:37;;;;;;;8.40;2.70;;;7.40;99.90;;;;;;6121441;23;19998;-81
2021/12/01 07:30:03;;;;;;;6.15;2.92;;;7.50;99.90;;;;;;6120235;23;20016;-81
2021/12/01 07:32:29;;;;;;;5.82;2.40;;;7.70;99.90;;;;;;6094496;23;20009;-81
2021/12/01 07:34:56;;;;;;;7.38;3.25;;;7.80;99.90;;;;;;6120376;23;20010;-81
2021/12/01 07:37:22;;;;;;;16.95;5.65;;;7.90;99.90;;;;;;6094609;23;20109;-82
2021/12/01 07:39:48;;;;;;;9.07;4.72;;;8.00;99.90;;;;;;6120295;23;20033;-80
2021/12/01 07:42:15;;;;;;;4.03;2.67;;;8.10;99.90;;;;;;6120154;23;20006;-80
2021/12/01 07:44:41;;;;;;;5.43;2.67;;;8.20;99.90;;;;;;6120200;23;20157;-81
2021/12/01 07:47:08;;;;;;;4.88;2.65;;;8.30;99.90;;;;;;6094758;23;20013;-80
2021/12/01 07:49:34;;;;;;;4.50;2.40;;;8.30;99.90;;;;;;6120628;23;20008;-80
2021/12/01 07:52:03;;;;;;;5.55;2.90;;;8.40;99.90;;;;;;6120698;23;20017;-81
2021/12/01 07:54:29;;;;;;;7.18;3.10;;;8.50;99.90;;;;;;6120302;23;19998;-80
2021/12/01 07:56:55;;;;;;;7.07;3.35;;;8.70;99.90;;;;;;6120417;23;20013;-80
2021/12/01 07:59:21;;;;;;;5.72;2.72;;;8.80;99.90;;;;;;6094696;23;20014;-81
2021/12/01 08:01:47;;;;;;;6.63;3.30;;;8.90;99.90;;;;;;6096768;23;20005;-81
2021/12/01 08:04:13;;;;;;;5.07;2.40;;;8.90;99.90;;;;;;6122324;23;20461;-79
2021/12/01 08:06:40;;;;;;;8.02;3.65;;;8.90;99.90;;;;;;6122208;23;20002;-80
2021/12/01 08:09:06;;;;;;;7.63;3.30;;;9.00;99.90;;;;;;6122147;23;20006;-81
2021/12/01 08:11:33;;;;;;;11.00;5.05;;;9.10;99.90;;;;;;6096253;23;20021;-80
2021/12/01 08:13:59;;;;;;;11.40;4.25;;;9.20;99.90;;;;;;6121824;23;20002;-81
2021/12/01 08:16:25;;;;;;;8.73;2.88;;;9.40;99.90;;;;;;6096338;23;20446;-81
2021/12/01 08:18:55;;;;;;;15.27;3.33;;;9.50;99.90;;;;;;6122980;23;20053;-80
2021/12/01 08:21:24;;;;;;;5.72;3.03;;;9.70;99.90;;;;;;6125595;23;20029;-80
2021/12/01 08:23:51;;;;;;;8.25;4.20;;;9.90;99.90;;;;;;6125492;23;20021;-80
2021/12/01 08:26:18;;;;;;;8.45;3.83;;;10.10;99.90;;;;;;6124863;23;20404;-79
2021/12/01 08:28:45;;;;;;;19.73;6.55;;;10.30;99.90;;;;;;6125111;23;20006;-80
2021/12/01 08:31:13;;;;;;;13.70;3.67;;;10.50;99.90;;;;;;6125248;23;20002;-81
2021/12/01 08:33:39;;;;;;;8.55;2.80;;;10.60;99.90;;;;;;6125238;23;20466;-80
2021/12/01 08:36:05;;;;;;;17.63;2.13;;;10.80;99.90;;;;;;6099043;23;20002;-79
2021/12/01 08:38:31;;;;;;;3.85;2.00;;;11.10;99.90;;;;;;6099381;23;20607;-80
2021/12/01 08:40:58;;;;;;;3.35;1.80;;;11.40;99.90;;;;;;6125066;23;20006;-82
2021/12/01 08:43:23;;;;;;;7.38;2.53;;;11.60;99.90;;;;;;6125060;23;20006;-80
2021/12/01 08:45:49;;;;;;;3.85;2.17;;;11.90;99.90;;;;;;6124943;23;20060;-79
2021/12/01 08:48:15;;;;;;;7.93;3.90;;;12.00;99.90;;;;;;6124908;23;20005;-80
2021/12/01 08:50:41;;;;;;;4.30;2.20;;;12.00;99.90;;;;;;6124487;23;20016;-79
2021/12/01 08:53:07;;;;;;;5.75;1.95;;;12.10;99.90;;;;;;6098674;23;20040;-80
2021/12/01 08:55:32;;;;;;;2.85;2.05;;;12.00;99.90;;;;;;6124810;23;20339;-81
2021/12/01 08:57:58;;;;;;;6.32;3.20;;;11.90;99.90;;;;;;6098668;23;20014;-81
2021/12/01 09:03:08;;;;;;;22.50;6.93;;;11.40;99.90;;;;;;6124924;23;20417;-78
2021/12/01 09:05:34;;;;;;;10.65;3.78;;;11.20;99.90;;;;;;6124749;23;20081;-79
2021/12/01 09:07:59;;;;;;;7.35;2.75;;;11.10;99.90;;;;;;6124796;23;20017;-79
2021/12/01 09:10:25;;;;;;;3.80;2.30;;;11.00;99.90;;;;;;6124636;23;20084;-78
2021/12/01 09:12:51;;;;;;;3.33;1.90;;;10.80;99.90;;;;;;6125048;23;20128;-81
2021/12/01 09:15:16;;;;;;;4.18;1.77;;;10.70;99.90;;;;;;6125102;23;20002;-81
2021/12/01 09:17:42;;;;;;;3.92;2.25;;;10.60;99.90;;;;;;6098902;23;20014;-79
2021/12/01 09:20:08;;;;;;;6.38;2.10;;;10.60;99.90;;;;;;6096690;23;20002;-80
2021/12/01 09:22:34;;;;;;;12.00;2.47;;;10.80;99.90;;;;;;6122158;23;20009;-79
2021/12/01 09:25:00;;;;;;;9.52;2.05;;;10.90;99.90;;;;;;6097628;23;20330;-79
2021/12/01 09:27:26;;;;;;;8.25;1.95;;;11.10;99.90;;;;;;6098180;23;20535;-80
2021/12/01 09:29:53;;;;;;;6.85;2.08;;;11.20;99.90;;;;;;6098599;23;20006;-80
2021/12/01 09:32:19;;;;;;;3.95;1.67;;;11.30;99.90;;;;;;6098427;23;20010;-80
2021/12/01 09:34:45;;;;;;;6.50;2.10;;;11.40;99.90;;;;;;6098575;23;20002;-81
2021/12/01 09:37:12;;;;;;;4.75;2.60;;;11.60;99.90;;;;;;6124555;23;20413;-82
2021/12/01 09:39:37;;;;;;;2.70;1.73;;;11.70;99.90;;;;;;6098312;23;20464;-80
2021/12/01 09:42:04;;;;;;;16.70;2.10;;;11.70;99.90;;;;;;6124551;23;20010;-80
2021/12/01 09:44:31;;;;;;;4.65;2.10;;;11.70;99.90;;;;;;6124515;23;20002;-81
2021/12/01 09:46:57;;;;;;;3.72;2.08;;;11.80;99.90;;;;;;6098375;23;20451;-79
2021/12/01 09:49:22;;;;;;;3.42;1.75;;;11.80;99.90;;;;;;6098404;23;20012;-78
2021/12/01 09:51:48;;;;;;;2.72;1.45;;;11.90;99.90;;;;;;6098438;23;20392;-78
2021/12/01 09:54:14;;;;;;;5.72;1.75;;;12.10;99.90;;;;;;6124321;23;20029;-80
2021/12/01 09:56:40;;;;;;;2.03;1.45;;;12.30;99.90;;;;;;6124351;23;20457;-78
2021/12/01 09:59:06;;;;;;;2.63;1.83;;;12.80;99.90;;;;;;6124219;23;20102;-79
2021/12/01 10:01:32;;;;;;;4.68;1.70;;;13.10;99.90;;;;;;6098531;23;20020;-79
2021/12/01 10:03:58;;;;;;;5.22;1.98;;;13.40;99.90;;;;;;6098142;23;20010;-79
2021/12/01 10:06:26;;;;;;;3.72;2.22;;;13.60;99.90;;;;;;6124343;23;20002;-79
2021/12/01 10:09:01;;;;;;;5.18;1.98;;;13.60;99.90;;;;;;6123713;23;20142;-80
2021/12/01 10:11:29;;;;;;;5.85;1.75;;;13.60;99.90;;;;;;6124540;23;20006;-79
2021/12/01 10:13:55;;;;;;;6.85;1.77;;;13.60;99.90;;;;;;6123664;23;20002;-79
2021/12/01 10:16:21;;;;;;;3.65;1.55;;;13.80;99.90;;;;;;6124067;23;20006;-80
2021/12/01 10:18:49;;;;;;;7.95;2.10;;;13.60;99.90;;;;;;6098161;23;20009;-81
2021/12/01 10:21:15;;;;;;;2.50;1.85;;;13.40;99.90;;;;;;6124175;23;20341;-79
2021/12/01 10:23:50;;;;;;;3.50;2.08;;;13.30;99.90;;;;;;6123808;23;20006;-79
2021/12/01 10:26:18;;;;;;;8.73;1.73;;;13.00;99.90;;;;;;6098157;23;20021;-79
2021/12/01 10:28:47;;;;;;;3.65;1.70;;;12.90;99.90;;;;;;6097619;23;20012;-80
2021/12/01 10:31:14;;;;;;;4.72;1.70;;;13.10;99.90;;;;;;6097768;23;20006;-79
2021/12/01 10:33:41;;;;;;;4.20;1.60;;;13.30;99.90;;;;;;6124282;23;20378;-79
2021/12/01 10:36:08;;;;;;;5.78;1.70;;;13.40;99.90;;;;;;6124264;23;20002;-81
2021/12/01 10:38:38;;;;;;;4.47;1.80;;;13.60;99.90;;;;;;6123710;23;20370;-81
2021/12/01 10:41:10;;;;;;;2.63;1.70;;;13.60;99.90;;;;;;6124079;23;20008;-78
2021/12/01 10:43:49;;;;;;;6.07;2.03;;;13.70;99.90;;;;;;6097816;23;20342;-80
2021/12/01 10:46:18;;;;;;;2.55;1.48;;;13.60;99.90;;;;;;6098101;23;20028;-80
2021/12/01 10:49:00;;;;;;;5.50;1.73;;;13.10;99.90;;;;;;6124057;23;20006;-79
2021/12/01 10:51:34;;;;;;;;;;;12.90;99.90;;;;;;6098192;23;20001;-82
2021/12/01 10:54:00;;;;;;;6.38;1.92;;;12.90;99.90;;;;;;6123890;23;19972;-80
2021/12/01 10:56:26;;;;;;;3.25;1.98;;;12.90;99.90;;;;;;6097918;23;20045;-81
2021/12/01 10:58:52;;;;;;;3.22;1.80;;;13.00;99.90;;;;;;6123500;23;20037;-81
2021/12/01 11:01:22;;;;;;;5.82;1.55;;;12.90;99.90;;;;;;6124227;23;20434;-84
2021/12/01 11:03:48;;;;;;;1.70;1.30;;;12.90;99.90;;;;;;6124690;23;20422;-83
2021/12/01 11:06:22;;;;;;;3.88;1.77;;;12.90;99.90;;;;;;6124388;23;19998;-81
2021/12/01 11:08:58;;;;;;;4.68;2.25;;;12.80;99.90;;;;;;6124180;23;20093;-87
2021/12/01 11:11:43;;;;;;;10.73;2.97;;;12.80;99.90;;;;;;6098708;23;20001;-82
2021/12/01 11:14:14;;;;;;;7.07;2.10;;;12.80;99.90;;;;;;6124534;23;20092;-85
2021/12/01 11:16:42;;;;;;;5.25;2.10;;;12.80;99.90;;;;;;6133849;23;20396;-83
2021/12/01 11:19:09;;;;;;;5.63;1.70;;;12.90;99.90;;;;;;6122767;23;20002;-82
2021/12/01 11:21:37;;;;;;;7.45;1.98;;;12.90;99.90;;;;;;6121517;23;20034;-85
2021/12/01 11:24:09;;;;;;;5.40;1.80;;;12.90;99.90;;;;;;6121946;23;20004;-84
2021/12/01 11:26:37;;;;;;;9.32;1.60;;;13.10;99.90;;;;;;6121862;23;20060;-85
2021/12/01 11:29:09;;;;;;;6.07;1.95;;;13.30;99.90;;;;;;6095371;23;20013;-85
2021/12/01 11:31:41;;;;;;;4.18;1.77;;;13.40;99.90;;;;;;6095130;23;20133;-82
2021/12/01 11:34:13;;;;;;;7.00;2.65;;;13.40;99.90;;;;;;6121615;23;20455;-85
2021/12/01 11:36:48;;;;;;;8.67;2.73;;;13.20;99.90;;;;;;6097605;23;20013;-87
2021/12/01 11:39:21;;;;;;;10.60;1.85;;;13.30;99.90;;;;;;6098945;23;20449;-87
2021/12/01 11:41:49;;;;;;;372.98;244.68;;;13.40;99.90;;;;;;6124362;23;20013;-85
2021/12/01 11:44:18;;;;;;;18.10;10.20;;;13.40;99.90;;;;;;6097740;23;20061;-83
2021/12/01 11:46:45;;;;;;;10.93;3.72;;;13.30;99.90;;;;;;6123695;23;20005;-86
2021/12/01 11:49:15;;;;;;;14.70;6.55;;;13.20;99.90;;;;;;6123300;23;20072;-83
2021/12/01 11:52:04;;;;;;;8.63;3.97;;;13.00;99.90;;;;;;6098462;23;20029;-85
2021/12/01 11:54:31;;;;;;;9.57;4.25;;;12.80;99.90;;;;;;6124169;23;20049;-85
2021/12/01 11:57:01;;;;;;;6.25;4.05;;;12.80;99.90;;;;;;6129700;23;20390;-85
2021/12/01 11:59:28;;;;;;;12.57;4.10;;;12.50;99.90;;;;;;6100739;23;20002;-85
2021/12/01 12:01:59;;;;;;;8.05;4.03;;;12.40;99.90;;;;;;6101558;23;20006;-85
2021/12/01 12:04:42;;;;;;;9.75;4.25;;;12.20;99.90;;;;;;6125319;23;20006;-85
2021/12/01 12:07:25;;;;;;;10.25;4.05;;;12.10;99.90;;;;;;6125341;23;20009;-85
2021/12/01 12:10:15;;;;;;;8.77;5.00;;;12.00;99.90;;;;;;6123385;23;20005;-82
2021/12/01 12:13:03;;;;;;;12.75;5.80;;;11.80;99.90;;;;;;6122486;23;20033;-83
2021/12/01 12:15:42;;;;;;;10.25;5.35;;;11.80;99.90;;;;;;6096074;23;20012;-83
2021/12/01 12:18:11;;;;;;;10.82;5.82;;;11.70;99.90;;;;;;6122473;23;20438;-84
2021/12/01 12:20:45;;;;;;;13.05;6.22;;;11.70;99.90;;;;;;6096564;23;20006;-83
2021/12/01 12:23:14;;;;;;;10.73;6.63;;;11.70;99.90;;;;;;6122835;23;20013;-83
2021/12/01 12:25:49;;;;;;;11.32;6.45;;;11.60;99.90;;;;;;6122216;23;20051;-84
2021/12/01 12:28:33;;;;;;;12.57;6.95;;;11.50;99.90;;;;;;6122436;23;20006;-85
2021/12/01 12:31:18;;;;;;;10.75;6.80;;;11.40;99.90;;;;;;6122568;23;20020;-82
2021/12/01 12:33:57;;;;;;;14.80;7.00;;;11.40;99.90;;;;;;6122330;23;20469;-85
2021/12/01 12:36:45;;;;;;;14.40;7.20;;;11.30;99.90;;;;;;6096718;23;20006;-84
2021/12/01 12:39:13;;;;;;;10.52;7.00;;;11.20;99.90;;;;;;6095661;23;20014;-85
2021/12/01 12:42:04;;;;;;;15.40;7.20;;;11.10;99.90;;;;;;6122514;23;19998;-85
2021/12/01 12:44:30;;;;;;;10.52;6.93;;;11.10;99.90;;;;;;6106066;23;20009;-84
2021/12/01 12:47:13;;;;;;;12.05;7.75;;;11.10;99.90;;;;;;6096144;23;20016;-84
2021/12/01 12:49:42;;;;;;;17.15;10.45;;;11.10;99.90;;;;;;6096124;23;20065;-84
2021/12/01 12:52:26;;;;;;;20.60;10.15;;;11.10;99.90;;;;;;6122191;23;20386;-83
2021/12/01 12:54:58;;;;;;;12.50;7.72;;;11.00;99.90;;;;;;6121533;23;20270;-82
2021/12/01 12:57:44;;;;;;;15.27;6.53;;;11.00;99.90;;;;;;6095211;23;20018;-84
2021/12/01 13:00:22;;;;;;;11.55;7.07;;;11.00;99.90;;;;;;6094852;23;20006;-85
2021/12/01 13:02:49;;;;;;;13.30;8.43;;;11.00;99.90;;;;;;6121744;23;20205;-84
2021/12/01 13:05:27;;;;;;;13.13;6.30;;;11.10;99.90;;;;;;6122060;23;20010;-84
2021/12/01 13:07:56;;;;;;;16.20;6.97;;;11.00;99.90;;;;;;6121943;23;20029;-84